KSOW/SOW METAR and TAF weather

Enter ICAO airport designator
Station Type Date Time Source
KSOW METAR 2019/06/19 07:15 UTC NOAA

KSOW 190715Z AUTO 21008KT 10SM CLR 14/M05 A3024 RMK AO2


Station Type Date Time Source
KSOW Decoded METAR 2019/06/19 07:15 UTC NOAA

Show Low, Show Low Regional Airport, AZ, United States (KSOW) 34-15-55N 110-00-20W
Jun 19, 2019 - 03:15 AM EDT / 2019.06.19 0715 UTC
Wind: from the SSW (210 degrees) at 9 MPH (8 KT):0
Visibility: 10 mile(s):0
Sky conditions: clear
Temperature: 57 F (14 C)
Dew Point: 23 F (-5 C)
Relative Humidity: 26%
Pressure (altimeter): 30.24 in. Hg (1024 hPa)
ob: KSOW 190715Z AUTO 21008KT 10SM CLR 14/M05 A3024 RMK AO2
cycle: 7

Station Type Date Time Source
KSOW TAF UTC NOAA

Error!

Example: see airport list